Time;durP1;ratioP1;P1;durP2;ratioP2;P2;SDS_P1;SDS_P2;PMS_P1;PMS_P2;Temp;Humidity;BMP_temperature;BMP_pressure;BME280_temperature;BME280_humidity;BME280_pressure;Samples;Min_cycle;Max_cycle;Signal;HPM_P1;HPM_P2
2022/11/14 00:01:19;;;;;;;35.17;17.38;;;;;;;6.56;100.00;99860.94;12221884;19;20461;-81
2022/11/14 00:05:42;;;;;;;42.53;17.95;;;;;;;6.51;100.00;99847.09;12221334;19;20025;-81
2022/11/14 00:10:02;;;;;;;34.10;16.83;;;;;;;6.49;100.00;99838.28;12197699;19;20031;-82
2022/11/14 00:14:22;;;;;;;53.80;18.15;;;;;;;6.47;100.00;99840.38;12221240;19;20038;-81
2022/11/14 00:18:42;;;;;;;149.57;29.02;;;;;;;6.39;100.00;99850.56;12204930;19;20021;-82
2022/11/14 00:23:03;;;;;;;99.82;25.25;;;;;;;6.26;100.00;99845.16;12220366;19;20027;-81
2022/11/14 00:27:23;;;;;;;55.55;18.60;;;;;;;6.22;100.00;99848.56;12200399;19;20517;-81
2022/11/14 00:31:43;;;;;;;55.70;19.90;;;;;;;6.18;100.00;99848.16;12218507;19;20009;-81
2022/11/14 00:36:04;;;;;;;41.97;17.45;;;;;;;6.15;100.00;99837.66;12199946;19;20044;-81
2022/11/14 00:40:24;;;;;;;47.05;18.02;;;;;;;6.12;100.00;99838.94;12220079;19;20021;-81
2022/11/14 00:44:44;;;;;;;53.60;18.27;;;;;;;6.05;100.00;99840.03;12209429;19;20488;-81
2022/11/14 00:49:04;;;;;;;33.88;17.35;;;;;;;6.03;100.00;99837.50;12217973;19;20014;-81
2022/11/14 00:53:24;;;;;;;66.00;19.42;;;;;;;6.06;100.00;99825.31;12212569;19;20017;-82
2022/11/14 00:57:44;;;;;;;37.35;17.45;;;;;;;6.03;100.00;99823.00;12195970;19;20017;-81
2022/11/14 01:02:04;;;;;;;46.17;16.73;;;;;;;5.99;100.00;99819.03;12216607;19;20013;-81
2022/11/14 01:06:25;;;;;;;33.50;16.15;;;;;;;5.98;100.00;99811.88;12196274;19;20025;-81
2022/11/14 01:10:47;;;;;;;36.67;15.05;;;;;;;5.96;100.00;99805.81;12266180;19;20038;-80
2022/11/14 01:15:08;;;;;;;45.00;16.67;;;;;;;5.90;100.00;99796.56;12227070;19;20023;-82
2022/11/14 01:19:28;;;;;;;45.60;16.70;;;;;;;5.79;100.00;99800.81;12227140;19;20014;-81
2022/11/14 01:23:48;;;;;;;29.85;14.75;;;;;;;5.63;100.00;99787.66;12198673;19;20021;-81
2022/11/14 01:28:11;;;;;;;39.88;17.52;;;;;;;5.45;100.00;99782.91;12246616;19;20014;-81
2022/11/14 01:32:32;;;;;;;46.95;18.73;;;;;;;5.34;100.00;99789.88;12269212;19;20018;-81
2022/11/14 01:36:52;;;;;;;129.20;31.75;;;;;;;5.28;100.00;99779.81;12227372;19;20483;-82
2022/11/14 01:41:14;;;;;;;55.58;19.38;;;;;;;5.22;100.00;99789.72;12261493;19;20017;-81
2022/11/14 01:46:00;;;;;;;57.60;19.95;;;;;;;5.19;100.00;99772.91;12203004;19;20017;-81
2022/11/14 01:50:24;;;;;;;88.22;23.33;;;;;;;5.23;100.00;99769.56;12220315;19;20017;-82
2022/11/14 01:54:48;;;;;;;85.82;22.42;;;;;;;5.20;100.00;99752.72;12193304;19;20031;-82
2022/11/14 01:59:12;;;;;;;47.25;18.13;;;;;;;5.19;100.00;99742.88;12219759;19;20012;-81
2022/11/14 02:03:36;;;;;;;39.08;17.35;;;;;;;5.15;100.00;99747.09;12192847;19;20013;-81
2022/11/14 02:07:57;;;;;;;35.50;16.33;;;;;;;5.12;100.00;99736.59;12215039;19;20025;-81
2022/11/14 02:12:18;;;;;;;34.40;15.80;;;;;;;5.09;100.00;99728.84;12197059;19;20025;-82
2022/11/14 02:16:40;;;;;;;34.40;15.82;;;;;;;5.05;100.00;99725.69;12220978;19;20029;-81
2022/11/14 02:21:07;;;;;;;30.90;14.38;;;;;;;5.01;100.00;99729.91;12194798;19;20090;-80
2022/11/14 02:25:27;;;;;;;28.50;14.25;;;;;;;5.01;100.00;99733.47;12216338;19;20035;-81
2022/11/14 02:29:47;;;;;;;24.35;12.43;;;;;;;5.01;100.00;99730.75;12200258;19;20022;-80
2022/11/14 02:34:07;;;;;;;33.08;13.68;;;;;;;5.00;100.00;99736.44;12203304;19;20014;-82
2022/11/14 02:38:28;;;;;;;26.17;13.57;;;;;;;4.97;100.00;99724.06;12217394;19;20031;-82
2022/11/14 02:42:49;;;;;;;80.95;20.67;;;;;;;4.92;100.00;99723.03;12190731;19;20047;-81
2022/11/14 02:47:09;;;;;;;22.98;11.90;;;;;;;4.80;100.00;99701.00;12220359;19;20035;-82
2022/11/14 02:51:29;;;;;;;23.35;11.77;;;;;;;4.75;100.00;99711.72;12196149;19;20403;-82
2022/11/14 02:55:49;;;;;;;18.75;10.27;;;;;;;4.62;100.00;99698.94;12216579;19;20102;-81
2022/11/14 03:00:10;;;;;;;18.92;10.10;;;;;;;4.46;100.00;99705.72;12196021;19;20126;-82
2022/11/14 03:04:34;;;;;;;19.13;10.68;;;;;;;4.29;100.00;99688.09;12215322;19;20024;-80
2022/11/14 03:08:54;;;;;;;20.00;9.85;;;;;;;4.18;100.00;99664.19;12192865;19;20009;-80
2022/11/14 03:13:14;;;;;;;21.08;9.95;;;;;;;4.07;100.00;99663.78;12212619;19;20023;-81
2022/11/14 03:17:34;;;;;;;20.30;10.65;;;;;;;4.00;100.00;99675.75;12210342;19;20022;-80
2022/11/14 03:21:54;;;;;;;19.20;10.38;;;;;;;3.98;100.00;99675.94;12196203;19;20560;-81
2022/11/14 03:26:15;;;;;;;20.35;11.02;;;;;;;4.00;100.00;99673.88;12229650;19;20018;-80
2022/11/14 03:30:35;;;;;;;19.73;11.68;;;;;;;4.04;100.00;99666.94;12205913;19;20018;-80
2022/11/14 03:34:56;;;;;;;19.27;11.13;;;;;;;4.12;100.00;99668.59;12223334;19;20014;-80
2022/11/14 03:39:16;;;;;;;20.15;11.27;;;;;;;4.25;100.00;99663.16;12200622;19;20024;-81
2022/11/14 03:43:36;;;;;;;17.45;10.05;;;;;;;4.39;100.00;99679.47;12217244;19;20098;-80
2022/11/14 03:47:56;;;;;;;22.30;10.55;;;;;;;4.52;100.00;99680.31;12197882;19;20048;-80
2022/11/14 03:52:16;;;;;;;22.00;11.30;;;;;;;4.67;100.00;99677.31;12216256;19;20057;-80
2022/11/14 03:56:36;;;;;;;28.58;11.32;;;;;;;4.88;100.00;99667.16;12219563;19;20017;-80
2022/11/14 04:00:56;;;;;;;28.50;12.77;;;;;;;5.10;100.00;99662.22;12200984;19;20099;-80
2022/11/14 04:05:17;;;;;;;23.08;11.52;;;;;;;5.27;100.00;99666.13;12220634;19;20018;-80
2022/11/14 04:09:37;;;;;;;22.98;11.52;;;;;;;5.35;100.00;99652.19;12199931;19;20031;-80
2022/11/14 04:13:57;;;;;;;20.80;11.43;;;;;;;5.47;100.00;99644.13;12219585;19;20018;-80
2022/11/14 04:18:17;;;;;;;20.15;11.68;;;;;;;5.61;100.00;99637.53;12198037;19;20885;-80
2022/11/14 04:22:37;;;;;;;20.08;11.75;;;;;;;5.78;100.00;99631.53;12213312;19;20010;-79
2022/11/14 04:26:57;;;;;;;28.08;13.32;;;;;;;5.92;100.00;99636.66;12194235;19;20023;-80
2022/11/14 04:31:17;;;;;;;29.02;13.55;;;;;;;6.07;100.00;99639.06;12215545;19;20013;-80
2022/11/14 04:35:38;;;;;;;29.52;14.55;;;;;;;6.20;100.00;99629.91;12217822;19;20021;-80
2022/11/14 04:40:01;;;;;;;22.27;12.10;;;;;;;6.30;100.00;99635.66;12193371;19;20021;-80
2022/11/14 04:44:21;;;;;;;18.40;10.35;;;;;;;6.18;100.00;99637.47;12217578;19;20027;-81
2022/11/14 04:48:41;;;;;;;16.85;10.43;;;;;;;6.14;100.00;99639.00;12193655;19;20037;-80
2022/11/14 04:53:02;;;;;;;17.73;9.90;;;;;;;6.11;100.00;99644.94;12213466;19;20030;-80
2022/11/14 04:57:22;;;;;;;17.60;10.60;;;;;;;6.04;100.00;99641.41;12194122;19;20034;-81
2022/11/14 05:01:42;;;;;;;16.20;9.88;;;;;;;5.97;100.00;99646.94;12212432;19;20023;-81
2022/11/14 05:06:03;;;;;;;18.08;10.38;;;;;;;5.93;100.00;99641.09;12196126;19;20014;-80
2022/11/14 05:10:24;;;;;;;18.58;10.80;;;;;;;5.97;100.00;99640.63;12264772;19;20002;-80
2022/11/14 05:14:44;;;;;;;22.30;12.02;;;;;;;6.04;100.00;99644.13;12220197;19;20021;-80
2022/11/14 05:19:04;;;;;;;25.75;12.85;;;;;;;6.11;100.00;99633.97;12196905;19;20033;-81
2022/11/14 05:23:24;;;;;;;20.52;11.27;;;;;;;6.19;100.00;99638.31;12218953;19;20027;-81
2022/11/14 05:27:44;;;;;;;26.10;12.98;;;;;;;6.28;100.00;99635.06;12199416;19;20084;-80
2022/11/14 05:32:04;;;;;;;26.13;12.95;;;;;;;6.39;100.00;99631.59;12217308;19;20018;-80
2022/11/14 05:36:24;;;;;;;24.77;12.23;;;;;;;6.49;100.00;99632.97;12199912;19;20027;-80
2022/11/14 05:40:45;;;;;;;28.20;14.23;;;;;;;6.57;100.00;99638.97;12215164;19;20082;-80
2022/11/14 05:45:06;;;;;;;28.45;13.80;;;;;;;6.66;100.00;99631.28;12186908;19;20017;-81
2022/11/14 05:49:26;;;;;;;30.45;14.95;;;;;;;6.72;100.00;99611.22;12214282;19;20076;-80
2022/11/14 05:53:46;;;;;;;35.63;15.07;;;;;;;6.75;100.00;99598.94;12204248;19;20027;-80
2022/11/14 05:58:06;;;;;;;36.30;15.35;;;;;;;6.75;100.00;99597.06;12221866;19;20028;-80
2022/11/14 06:02:26;;;;;;;37.03;16.52;;;;;;;6.80;100.00;99616.34;12225833;19;20034;-80
2022/11/14 06:06:47;;;;;;;31.02;15.35;;;;;;;6.87;100.00;99615.44;12242387;19;20032;-81
2022/11/14 06:11:11;;;;;;;37.20;15.75;;;;;;;6.92;100.00;99599.16;12236966;19;21704;-81
2022/11/14 06:15:31;;;;;;;40.45;15.85;;;;;;;6.95;100.00;99596.78;12197005;19;20811;-82
2022/11/14 06:19:51;;;;;;;31.70;14.02;;;;;;;7.00;100.00;99596.94;12215924;19;20039;-80
2022/11/14 06:24:11;;;;;;;33.30;15.10;;;;;;;7.04;100.00;99617.31;12193528;19;20050;-81
2022/11/14 06:28:31;;;;;;;34.78;14.38;;;;;;;7.11;100.00;99610.91;12220948;19;20051;-81
2022/11/14 06:32:58;;;;;;;31.88;14.60;;;;;;;7.15;100.00;99593.78;12195217;19;20013;-82
2022/11/14 06:37:18;;;;;;;36.63;15.13;;;;;;;7.21;100.00;99586.53;12215266;19;20179;-81
2022/11/14 06:41:38;;;;;;;28.08;14.02;;;;;;;7.25;100.00;99598.69;12216986;19;20089;-82
2022/11/14 06:45:59;;;;;;;32.38;14.77;;;;;;;7.31;100.00;99604.06;12193122;19;20031;-81
2022/11/14 06:50:19;;;;;;;31.40;15.65;;;;;;;7.36;100.00;99606.13;12216782;19;20189;-81
2022/11/14 06:54:39;;;;;;;30.63;13.85;;;;;;;7.40;100.00;99598.25;12193668;19;20030;-81
2022/11/14 06:58:59;;;;;;;35.00;14.38;;;;;;;7.45;100.00;99601.97;12228540;19;20035;-81
2022/11/14 07:03:19;;;;;;;24.83;12.10;;;;;;;7.49;100.00;99599.59;12204017;19;20018;-81
2022/11/14 07:07:41;;;;;;;27.33;13.35;;;;;;;7.52;100.00;99610.09;12228735;19;20023;-81
2022/11/14 07:12:01;;;;;;;24.83;13.20;;;;;;;7.55;100.00;99590.41;12208019;19;20121;-81
2022/11/14 07:16:29;;;;;;;29.52;13.65;;;;;;;7.59;100.00;99597.13;12226172;19;20635;-80
2022/11/14 07:21:03;;;;;;;30.02;13.38;;;;;;;7.66;100.00;99605.22;12200481;19;20016;-81
2022/11/14 07:25:23;;;;;;;26.00;12.18;;;;;;;7.75;100.00;99615.63;12223540;19;20013;-81
2022/11/14 07:29:43;;;;;;;28.98;13.88;;;;;;;7.86;100.00;99622.19;12227254;19;20019;-81
2022/11/14 07:34:04;;;;;;;23.88;11.85;;;;;;;7.91;100.00;99607.75;12198074;19;20642;-81
2022/11/14 07:38:25;;;;;;;25.70;12.98;;;;;;;7.91;100.00;99611.34;12223594;19;20031;-81
2022/11/14 07:42:45;;;;;;;25.77;11.63;;;;;;;7.92;100.00;99617.69;12197730;19;20068;-81
2022/11/14 07:47:05;;;;;;;23.52;12.82;;;;;;;7.97;100.00;99615.03;12225675;19;20017;-81
2022/11/14 07:51:25;;;;;;;25.98;14.13;;;;;;;7.99;100.00;99605.50;12207006;19;20013;-79
2022/11/14 07:55:45;;;;;;;30.63;13.35;;;;;;;7.88;100.00;99600.00;12225140;19;20050;-82
2022/11/14 08:00:06;;;;;;;25.70;12.85;;;;;;;7.72;100.00;99610.59;12201797;19;20013;-81
2022/11/14 08:04:26;;;;;;;26.15;13.00;;;;;;;7.68;100.00;99603.94;12211811;19;20035;-80
2022/11/14 08:08:48;;;;;;;26.50;13.20;;;;;;;7.69;100.00;99613.00;12206761;19;20748;-83
2022/11/14 08:13:10;;;;;;;28.05;14.38;;;;;;;7.78;100.00;99608.00;12210606;19;20017;-84
2022/11/14 08:17:50;;;;;;;28.83;12.85;;;;;;;7.92;100.00;99598.47;12272948;19;20384;-81
2022/11/14 08:22:10;;;;;;;27.05;13.32;;;;;;;8.04;100.00;99598.47;12258236;19;20010;-83
2022/11/14 08:31:28;;;;;;;22.27;12.27;;;;;;;8.34;100.00;99601.91;12234050;19;20030;-82
2022/11/14 08:35:52;;;;;;;23.92;13.10;;;;;;;8.54;100.00;99612.56;12217431;19;20038;-84
2022/11/14 08:40:13;;;;;;;28.23;13.25;;;;;;;8.74;100.00;99616.81;12233944;19;20025;-84
2022/11/14 08:44:33;;;;;;;21.20;10.43;;;;;;;8.90;100.00;99610.56;12230913;19;20022;-82
2022/11/14 08:48:55;;;;;;;22.00;11.70;;;;;;;8.97;100.00;99611.25;12208526;19;20018;-80
2022/11/14 08:53:15;;;;;;;21.00;11.13;;;;;;;9.05;100.00;99621.03;12228860;19;20055;-80
2022/11/14 08:57:35;;;;;;;23.23;11.35;;;;;;;9.23;100.00;99625.50;12207245;19;20009;-83
2022/11/14 09:01:56;;;;;;;20.65;11.07;;;;;;;9.42;100.00;99621.44;12226943;19;20755;-84
2022/11/14 09:06:17;;;;;;;18.88;11.07;;;;;;;9.43;100.00;99620.38;12205676;19;20026;-81
2022/11/14 09:10:37;;;;;;;21.63;10.82;;;;;;;9.36;100.00;99626.00;12226890;19;20361;-83
2022/11/14 09:20:06;;;;;;;17.35;9.02;;;;;;;9.85;100.00;99598.00;12221626;19;20070;-80
2022/11/14 09:24:26;;;;;;;21.77;9.80;;;;;;;10.16;100.00;99596.53;12197614;19;20557;-81
2022/11/14 09:28:47;;;;;;;18.98;9.63;;;;;;;10.40;100.00;99586.16;12219736;19;20031;-81
2022/11/14 09:33:07;;;;;;;15.75;9.10;;;;;;;10.36;100.00;99600.72;12199663;19;20833;-81
2022/11/14 09:37:31;;;;;;;14.95;9.35;;;;;;;10.37;100.00;99589.44;12227250;19;20100;-82
2022/11/14 09:42:00;;;;;;;15.95;8.75;;;;;;;10.60;100.00;99606.84;12209471;19;20484;-81
2022/11/14 09:46:27;;;;;;;13.93;8.43;;;;;;;10.69;100.00;99605.31;12223424;19;20031;-81
2022/11/14 09:51:01;;;;;;;14.40;8.35;;;;;;;10.71;100.00;99592.13;12226113;19;20019;-81
2022/11/14 09:55:29;;;;;;;17.50;8.35;;;;;;;10.63;100.00;99585.13;12118130;19;2004569;-82
2022/11/14 09:59:56;;;;;;;13.80;7.27;;;;;;;10.76;100.00;99596.84;12204126;19;20029;-82
2022/11/14 10:04:27;;;;;;;15.02;7.15;;;;;;;10.94;100.00;99594.56;12225579;19;20039;-82
2022/11/14 10:09:06;;;;;;;13.45;7.43;;;;;;;11.13;100.00;99584.06;12223115;19;20023;-83
2022/11/14 10:13:35;;;;;;;11.48;7.25;;;;;;;11.26;100.00;99588.31;12120819;19;2004389;-83
2022/11/14 10:18:10;;;;;;;11.25;6.18;;;;;;;11.42;100.00;99570.00;12202814;19;20017;-82
2022/11/14 10:22:52;;;;;;;12.10;6.68;;;;;;;11.50;99.30;99561.25;12230746;19;20076;-82
2022/11/14 10:27:51;;;;;;;13.90;6.78;;;;;;;11.72;99.71;99563.94;12204363;19;20018;-83
2022/11/14 10:32:37;;;;;;;14.25;7.25;;;;;;;12.09;96.92;99563.13;12224394;19;20019;-83
2022/11/14 10:37:16;;;;;;;13.43;6.97;;;;;;;12.21;94.25;99560.16;12204198;19;20503;-82
2022/11/14 10:41:38;;;;;;;13.32;7.13;;;;;;;12.18;95.29;99561.53;12221461;19;20019;-82
2022/11/14 10:46:22;;;;;;;15.63;7.85;;;;;;;12.15;95.45;99555.72;12201770;19;20031;-82
2022/11/14 10:51:01;;;;;;;13.27;7.00;;;;;;;12.04;95.23;99544.56;12222391;19;20869;-84
2022/11/14 10:55:23;;;;;;;11.60;6.63;;;;;;;11.98;96.43;99534.59;12199189;19;20026;-83
2022/11/14 11:00:21;;;;;;;11.90;6.63;;;;;;;11.92;96.17;99521.03;12204316;19;20039;-83
2022/11/14 11:04:44;;;;;;;12.73;7.57;;;;;;;11.93;97.10;99517.16;12237777;19;20021;-82
2022/11/14 11:13:55;;;;;;;14.85;7.25;;;;;;;12.18;97.50;99517.34;12230253;19;20032;-83
2022/11/14 11:18:25;;;;;;;10.70;6.38;;;;;;;12.33;96.56;99508.28;12198463;19;20027;-84
2022/11/14 11:22:46;;;;;;;14.38;6.13;;;;;;;12.39;96.73;99498.09;12218336;19;20039;-83
2022/11/14 11:27:34;;;;;;;10.52;6.22;;;;;;;12.50;97.75;99491.53;12199643;19;20014;-84
2022/11/14 11:31:59;;;;;;;14.85;6.93;;;;;;;12.69;96.48;99483.56;12218641;19;20027;-83
2022/11/14 11:36:23;;;;;;;12.63;6.20;;;;;;;12.69;95.13;99492.69;12195905;19;20033;-83
2022/11/14 11:40:46;;;;;;;10.32;5.85;;;;;;;12.67;95.88;99481.09;12220880;19;20042;-83
2022/11/14 11:45:16;;;;;;;12.23;6.00;;;;;;;12.75;95.51;99476.94;12206270;19;20013;-83
2022/11/14 11:49:45;;;;;;;10.95;6.20;;;;;;;12.91;95.34;99475.03;12227741;19;20769;-83
2022/11/14 11:54:18;;;;;;;11.77;5.97;;;;;;;13.20;93.63;99481.72;12201897;19;20046;-83
2022/11/14 11:58:49;;;;;;;12.63;6.95;;;;;;;13.46;93.28;99470.69;12231104;19;20049;-83
2022/11/14 12:03:13;;;;;;;12.20;6.97;;;;;;;13.70;91.25;99470.97;12203327;19;20010;-83
2022/11/14 12:07:46;;;;;;;11.05;6.40;;;;;;;13.75;91.08;99473.72;12228427;19;20071;-83
2022/11/14 12:12:47;;;;;;;15.05;7.20;;;;;;;13.79;90.32;99466.50;12203179;19;20024;-83
2022/11/14 12:17:07;;;;;;;12.23;6.28;;;;;;;13.76;90.96;99478.16;12223229;19;20657;-83
2022/11/14 12:22:29;;;;;;;14.07;6.68;;;;;;;13.65;90.95;99473.72;12199600;19;20089;-83
2022/11/14 12:27:09;;;;;;;13.77;6.70;;;;;;;13.44;92.65;99475.69;12222038;19;20668;-83
2022/11/14 12:31:34;;;;;;;13.68;5.75;;;;;;;13.26;93.58;99471.53;12115692;19;2004561;-82
2022/11/14 12:36:00;;;;;;;10.52;6.45;;;;;;;13.19;94.19;99470.94;12217993;19;20019;-82
2022/11/14 12:40:24;;;;;;;10.65;6.80;;;;;;;13.04;94.04;99463.47;12193932;19;20738;-82
2022/11/14 12:44:46;;;;;;;11.93;6.28;;;;;;;12.92;94.94;99460.94;12228508;19;20035;-83
2022/11/14 12:49:35;;;;;;;10.23;6.32;;;;;;;12.87;95.87;99472.00;12203341;19;20088;-82
2022/11/14 12:53:57;;;;;;;10.30;6.28;;;;;;;12.82;96.51;99465.63;12225397;19;20023;-82
2022/11/14 12:58:39;;;;;;;13.30;6.07;;;;;;;12.78;97.69;99463.41;12260417;19;20513;-83
2022/11/14 13:03:23;;;;;;;14.98;6.57;;;;;;;12.72;98.39;99458.13;12210503;19;20121;-82
2022/11/14 13:08:20;;;;;;;11.43;7.00;;;;;;;12.70;98.61;99452.91;12233826;19;20021;-82
2022/11/14 13:22:34;;;;;;;11.55;6.60;;;;;;;12.67;99.46;99434.09;12200155;19;20379;-82
2022/11/14 13:27:14;;;;;;;19.60;12.82;;;;;;;12.69;99.62;99440.16;12228414;19;20034;-82
2022/11/14 13:31:34;;;;;;;12.82;7.97;;;;;;;12.72;99.92;99431.31;12116343;19;2004476;-83
2022/11/14 13:35:56;;;;;;;11.45;7.88;;;;;;;12.78;99.63;99435.75;12223959;19;20086;-82
2022/11/14 13:40:32;;;;;;;14.98;8.70;;;;;;;12.84;100.00;99424.72;12201060;19;20010;-82
2022/11/14 13:44:52;;;;;;;13.23;7.90;;;;;;;12.91;100.00;99419.72;12224291;19;20021;-82
2022/11/14 13:49:54;;;;;;;10.43;6.32;;;;;;;12.88;100.00;99421.13;12201342;19;20110;-83
2022/11/14 13:54:15;;;;;;;12.07;6.40;;;;;;;12.73;100.00;99421.09;12204786;19;20119;-81
2022/11/14 13:58:52;;;;;;;13.13;6.18;;;;;;;12.65;100.00;99416.94;12225400;19;20031;-81
2022/11/14 14:03:38;;;;;;;10.70;5.30;;;;;;;12.59;100.00;99412.50;12195703;19;20106;-81
2022/11/14 14:08:18;;;;;;;8.88;5.07;;;;;;;12.69;100.00;99406.97;12220188;19;20018;-81
2022/11/14 14:12:55;;;;;;;9.70;4.63;;;;;;;12.78;100.00;99410.03;12216111;19;20039;-82
2022/11/14 14:17:22;;;;;;;8.27;4.82;;;;;;;12.75;100.00;99414.19;12223077;19;20741;-81
2022/11/14 14:22:13;;;;;;;10.30;5.45;;;;;;;12.77;100.00;99411.97;12203131;19;20535;-82
2022/11/14 14:26:33;;;;;;;11.80;5.75;;;;;;;12.74;100.00;99404.25;12229285;19;20027;-82
2022/11/14 14:31:10;;;;;;;10.13;5.75;;;;;;;12.71;100.00;99407.56;12202002;19;20063;-82
2022/11/14 14:35:33;;;;;;;8.90;5.55;;;;;;;12.64;100.00;99403.38;12223399;19;20038;-81
2022/11/14 14:40:01;;;;;;;10.60;5.55;;;;;;;12.60;100.00;99410.56;12201981;19;20027;-82
2022/11/14 14:44:37;;;;;;;9.68;6.07;;;;;;;12.51;100.00;99416.63;12223644;19;20089;-81
2022/11/14 14:49:01;;;;;;;9.18;5.80;;;;;;;12.42;100.00;99420.19;12231701;19;20018;-82
2022/11/14 14:53:33;;;;;;;11.68;5.55;;;;;;;12.29;100.00;99418.78;12268686;19;20045;-82
2022/11/14 14:57:53;;;;;;;10.00;5.15;;;;;;;12.17;100.00;99416.25;12223062;19;20410;-82
2022/11/14 15:02:20;;;;;;;10.85;5.65;;;;;;;12.11;100.00;99406.28;12228573;19;20394;-82
2022/11/14 15:06:46;;;;;;;11.80;5.85;;;;;;;12.06;100.00;99406.25;12206372;19;20423;-82
2022/11/14 15:11:07;;;;;;;11.18;6.13;;;;;;;11.94;100.00;99403.69;12228747;19;20026;-82
2022/11/14 15:15:28;;;;;;;11.10;5.80;;;;;;;11.84;100.00;99415.50;12201309;19;20031;-81
2022/11/14 15:19:51;;;;;;;12.95;5.68;;;;;;;11.75;100.00;99405.22;12234755;19;20017;-81
2022/11/14 15:24:30;;;;;;;12.07;5.40;;;;;;;11.61;100.00;99400.19;12204819;19;20034;-81
2022/11/14 15:28:50;;;;;;;16.17;7.53;;;;;;;11.54;100.00;99402.34;12233706;19;20426;-82
2022/11/14 15:33:31;;;;;;;19.83;9.68;;;;;;;11.40;100.00;99401.97;12205430;19;20068;-82
2022/11/14 15:38:05;;;;;;;14.55;7.53;;;;;;;11.34;100.00;99403.03;12235522;19;20078;-83
2022/11/14 15:42:45;;;;;;;12.55;6.78;;;;;;;11.24;100.00;99388.34;12210613;19;20020;-82
2022/11/14 15:47:12;;;;;;;10.20;5.95;;;;;;;11.16;100.00;99392.44;12234352;19;20025;-83
2022/11/14 15:51:57;;;;;;;10.02;6.30;;;;;;;10.98;100.00;99388.16;12210567;19;20034;-81
2022/11/14 15:56:18;;;;;;;9.55;5.07;;;;;;;10.83;100.00;99394.34;12234472;19;20042;-82
2022/11/14 16:00:44;;;;;;;9.88;5.40;;;;;;;10.77;100.00;99395.41;12216214;19;20031;-83
2022/11/14 16:05:06;;;;;;;11.88;5.57;;;;;;;10.77;100.00;99403.69;12277831;19;20010;-84
2022/11/14 16:09:27;;;;;;;9.05;5.57;;;;;;;10.80;100.00;99407.84;12237788;19;20076;-83
2022/11/14 16:13:49;;;;;;;7.20;4.90;;;;;;;10.84;100.00;99400.69;12235543;19;20027;-83
2022/11/14 16:18:10;;;;;;;11.30;4.88;;;;;;;10.95;100.00;99400.53;12216553;19;20029;-82
2022/11/14 16:22:31;;;;;;;7.80;4.47;;;;;;;11.08;100.00;99396.50;12232501;19;20013;-82
2022/11/14 16:26:52;;;;;;;9.23;5.40;;;;;;;11.29;100.00;99393.91;12219639;19;20017;-84
2022/11/14 16:31:13;;;;;;;8.90;4.40;;;;;;;11.55;100.00;99392.97;12240069;19;20100;-83
2022/11/14 16:35:34;;;;;;;9.13;3.95;;;;;;;11.78;100.00;99391.72;12237916;19;20038;-84
2022/11/14 16:39:56;;;;;;;6.45;3.80;;;;;;;11.98;100.00;99401.22;12217057;19;20058;-83
2022/11/14 16:44:17;;;;;;;8.88;4.30;;;;;;;12.11;100.00;99403.50;12230196;19;20027;-82
2022/11/14 16:48:38;;;;;;;9.95;4.07;;;;;;;12.23;100.00;99412.41;12211715;19;20023;-81
2022/11/14 16:52:58;;;;;;;7.40;3.65;;;;;;;12.36;100.00;99424.88;12228684;19;20039;-87
2022/11/14 16:57:18;;;;;;;7.57;3.70;;;;;;;12.48;100.00;99422.69;12207789;19;20023;-83
2022/11/14 17:01:38;;;;;;;8.95;4.15;;;;;;;12.62;100.00;99423.00;12229479;19;20017;-83
2022/11/14 17:05:59;;;;;;;7.32;4.57;;;;;;;12.71;100.00;99429.66;12210316;19;20026;-82
2022/11/14 17:10:19;;;;;;;6.43;4.00;;;;;;;12.81;100.00;99422.50;12234095;19;20017;-83
2022/11/14 17:14:40;;;;;;;8.73;4.18;;;;;;;12.90;100.00;99418.06;12221719;19;20031;-82
2022/11/14 17:19:00;;;;;;;7.97;4.25;;;;;;;12.96;100.00;99419.75;12204460;19;20016;-84
2022/11/14 17:23:20;;;;;;;8.50;3.97;;;;;;;13.00;100.00;99421.69;12221926;19;20736;-81
2022/11/14 17:27:40;;;;;;;7.18;4.10;;;;;;;13.12;100.00;99421.44;12199870;19;20090;-82
2022/11/14 17:32:00;;;;;;;8.88;3.78;;;;;;;13.21;100.00;99433.59;12257104;19;20069;-82
2022/11/14 17:36:22;;;;;;;8.50;4.03;;;;;;;13.30;99.40;99420.06;12205063;19;20030;-82
2022/11/14 17:40:43;;;;;;;8.77;3.67;;;;;;;13.37;98.69;99422.56;12229249;19;20010;-83
2022/11/14 17:45:23;;;;;;;7.70;3.63;;;;;;;13.43;98.29;99424.22;12204092;19;20505;-83
2022/11/14 17:49:49;;;;;;;6.78;3.50;;;;;;;13.45;97.28;99425.59;12238332;19;20722;-83
2022/11/14 17:54:10;;;;;;;6.68;4.05;;;;;;;13.45;96.20;99422.81;12213396;19;20051;-82
2022/11/14 17:58:30;;;;;;;6.95;4.25;;;;;;;13.47;95.34;99428.06;12238407;19;20617;-82
2022/11/14 18:02:51;;;;;;;8.82;3.85;;;;;;;13.47;95.08;99430.00;12211209;19;20024;-82
2022/11/14 18:07:12;;;;;;;10.25;4.35;;;;;;;13.48;94.59;99443.59;12234485;19;20031;-82
2022/11/14 18:11:35;;;;;;;;;;;;;;;13.48;94.10;99440.81;12231363;19;20025;-82
2022/11/14 18:16:07;;;;;;;9.50;3.40;;;;;;;13.47;93.84;99436.38;12209989;19;19939;-82
2022/11/14 18:20:28;;;;;;;9.77;3.87;;;;;;;13.42;93.09;99425.31;12226595;19;20129;-83
2022/11/14 18:24:48;;;;;;;10.00;3.70;;;;;;;13.44;93.42;99436.94;12202565;19;20123;-81
2022/11/14 18:29:08;;;;;;;5.65;3.05;;;;;;;13.43;93.14;99438.03;12221046;19;20009;-83
2022/11/14 18:33:28;;;;;;;7.00;3.65;;;;;;;13.46;92.91;99440.25;12202444;19;20017;-83
2022/11/14 18:37:50;;;;;;;9.60;3.78;;;;;;;13.49;92.54;99442.47;12221304;19;20021;-83
2022/11/14 18:42:10;;;;;;;10.90;3.53;;;;;;;13.52;92.21;99444.69;12200639;19;20402;-83
2022/11/14 18:46:30;;;;;;;8.60;3.50;;;;;;;13.55;92.05;99452.44;12224749;19;20398;-79
2022/11/14 18:51:01;;;;;;;8.65;3.53;;;;;;;13.55;91.94;99452.44;12206469;19;20038;-81
2022/11/14 18:55:22;;;;;;;7.53;3.90;;;;;;;13.58;92.75;99446.34;12228644;19;20113;-81
2022/11/14 18:59:42;;;;;;;6.32;3.85;;;;;;;13.63;92.96;99453.81;12226941;19;20013;-80
2022/11/14 19:04:06;;;;;;;7.03;3.83;;;;;;;13.66;93.35;99454.09;12195170;19;20013;-81
2022/11/14 19:08:26;;;;;;;13.80;4.00;;;;;;;13.66;93.45;99447.72;12223718;19;20739;-81
2022/11/14 19:12:47;;;;;;;6.63;3.58;;;;;;;13.68;93.74;99449.09;12194489;19;20031;-80
2022/11/14 19:17:07;;;;;;;10.48;3.38;;;;;;;13.72;93.47;99451.31;12226133;19;20018;-81
2022/11/14 19:21:28;;;;;;;6.43;3.40;;;;;;;13.66;93.16;99454.09;12206793;19;20017;-82
2022/11/14 19:25:51;;;;;;;;;;;;;;;13.65;93.43;99452.44;12224478;19;20042;-81
2022/11/14 19:30:11;;;;;;;7.38;3.35;;;;;;;13.64;93.61;99459.06;12202482;19;19936;-81
2022/11/14 19:34:31;;;;;;;6.40;4.07;;;;;;;13.56;93.80;99453.25;12222509;19;20066;-81
2022/11/14 19:38:54;;;;;;;8.35;3.80;;;;;;;13.52;93.91;99455.75;12196741;19;20017;-81
2022/11/14 19:43:16;;;;;;;6.82;4.07;;;;;;;13.52;94.16;99463.22;12223460;19;20035;-82
2022/11/14 19:47:36;;;;;;;7.65;3.55;;;;;;;13.53;93.88;99462.13;12225601;19;20085;-80
2022/11/14 19:51:57;;;;;;;6.03;3.13;;;;;;;13.56;93.66;99458.78;12206823;19;20043;-80
2022/11/14 19:56:18;;;;;;;6.88;3.63;;;;;;;13.52;93.28;99469.59;12223191;19;20019;-81
2022/11/14 20:00:38;;;;;;;7.18;3.25;;;;;;;13.59;93.62;99459.09;12200934;19;20035;-80
2022/11/14 20:04:58;;;;;;;8.80;3.80;;;;;;;13.60;93.46;99462.69;12223355;19;20035;-82
2022/11/14 20:09:20;;;;;;;8.60;4.30;;;;;;;13.49;93.70;99459.06;12203246;19;20171;-82
2022/11/14 20:13:41;;;;;;;6.97;4.07;;;;;;;13.37;93.99;99466.84;12223648;19;20017;-82
2022/11/14 20:18:01;;;;;;;6.47;3.22;;;;;;;13.27;94.44;99462.13;12205544;19;20046;-81
2022/11/14 20:22:22;;;;;;;6.95;3.40;;;;;;;13.21;94.72;99458.50;12229212;19;20017;-82
2022/11/14 20:26:42;;;;;;;6.93;3.60;;;;;;;13.20;94.87;99456.81;12229344;19;20108;-81
2022/11/14 20:31:05;;;;;;;7.63;4.13;;;;;;;13.27;94.79;99458.53;12203444;19;20403;-83
2022/11/14 20:35:25;;;;;;;;;;;;;;;13.31;94.50;99466.00;12224963;19;20030;-81